SPTN/TCQ METAR and TAF weather

Enter ICAO airport designator
Station Type Date Time Source
SPTN METAR 2022/01/28 23:00 UTC NOAA

SPTN 282300Z 23008KT 9999 BKN100 19/13 Q1016 RMK PP000


Station Type Date Time Source
SPTN Decoded METAR 2022/01/28 23:00 UTC NOAA

Tacna, Peru (SPTN) 18-04S 070-18W 469M
Jan 28, 2022 - 06:00 PM EST / 2022.01.28 2300 UTC
Wind: from the SW (230 degrees) at 9 MPH (8 KT):0
Visibility: greater than 7 mile(s):0
Sky conditions: mostly cloudy
Temperature: 66 F (19 C)
Dew Point: 55 F (13 C)
Relative Humidity: 68%
Pressure (altimeter): 30.00 in. Hg (1016 hPa)
ob: SPTN 282300Z 23008KT 9999 BKN100 19/13 Q1016 RMK PP000
cycle: 23

Station Type Date Time Source
SPTN TAF 2022/01/28 18:33 UTC NOAA

TAF SPTN 281700Z 2818/2918 22010KT CAVOK TX27/2819Z TN16/2910Z
FM290300 23005KT 9999 SCT025
FM291530 22010KT CAVOK

Example: see airport list